Time;durP1;ratioP1;P1;durP2;ratioP2;P2;SDS_P1;SDS_P2;PMS_P1;PMS_P2;Temp;Humidity;BMP_temperature;BMP_pressure;BME280_temperature;BME280_humidity;BME280_pressure;Samples;Min_cycle;Max_cycle;Signal;HPM_P1;HPM_P2
2020/12/10 00:01:25;;;;;;;;;;;20.10;80.70;;;;;;5952240;24;19922;-87
2020/12/10 00:08:30;;;;;;;;;;;20.00;81.00;;;;;;5954778;23;19919;-85
2020/12/10 00:11:38;;;;;;;;;;;19.90;81.30;;;;;;5974298;24;19963;-87
2020/12/10 00:15:00;;;;;;;;;;;19.90;81.40;;;;;;5952515;24;19907;-89
2020/12/10 00:18:54;;;;;;;;;;;19.90;81.60;;;;;;5939213;24;19927;-88
2020/12/10 00:22:14;;;;;;;;;;;20.00;81.90;;;;;;5917222;24;19928;-85
2020/12/10 00:25:33;;;;;;;;;;;19.90;81.90;;;;;;5966063;23;19927;-84
2020/12/10 00:28:40;;;;;;;;;;;19.90;81.90;;;;;;6009569;23;20259;-85
2020/12/10 00:31:42;;;;;;;;;;;19.90;82.00;;;;;;6013706;23;19933;-86
2020/12/10 00:34:30;;;;;;;;;;;19.90;82.10;;;;;;6027475;23;19911;-85
2020/12/10 00:41:04;;;;;;;;;;;20.00;82.20;;;;;;6034640;23;19928;-86
2020/12/10 00:43:37;;;;;;;;;;;19.90;82.30;;;;;;5989840;23;19932;-87
2020/12/10 00:47:13;;;;;;;;;;;19.90;82.40;;;;;;6060632;23;19918;-87
2020/12/10 00:53:28;;;;;;;;;;;19.90;82.60;;;;;;6079813;23;19922;-85
2020/12/10 01:04:32;;;;;;;;;;;19.90;82.90;;;;;;6159301;23;19915;-85
2020/12/10 01:12:07;;;;;;;;;;;19.90;82.90;;;;;;6075795;23;20046;-85
2020/12/10 01:15:06;;;;;;;;;;;19.90;82.90;;;;;;6042787;23;20078;-85
2020/12/10 01:18:48;;;;;;;;;;;19.90;83.00;;;;;;6162102;23;19923;-84
2020/12/10 01:22:03;;;;;;;;;;;;;;;;;;;;;
2020/12/10 01:26:22;;;;;;;;;;;19.90;83.10;;;;;;6261263;23;20009;-86
2020/12/10 01:29:00;;;;;;;;;;;19.90;83.10;;;;;;6209680;23;20331;-85
2020/12/10 01:31:56;;;;;;;;;;;;;;;;;;;;;
2020/12/10 01:42:05;;;;;;;;;;;19.70;83.50;;;;;;6240991;23;20030;-86
2020/12/10 01:45:30;;;;;;;;;;;;;;;;;;;;;
2020/12/10 01:48:19;;;;;;;;;;;19.60;83.80;;;;;;6227998;23;19920;-86
2020/12/10 01:51:23;;;;;;;;;;;19.60;84.00;;;;;;6237511;23;20231;-84
2020/12/10 01:54:01;;;;;;;;;;;19.50;84.00;;;;;;6182540;23;19920;-85
2020/12/10 02:00:17;;;;;;;;;;;;;;;;;;;;;
2020/12/10 02:03:27;;;;;;;;;;;19.50;84.50;;;;;;6210754;23;19927;-89
2020/12/10 02:06:27;;;;;;;;;;;19.40;84.50;;;;;;6222924;22;19907;-88
2020/12/10 02:09:42;;;;;;;;;;;19.40;84.70;;;;;;6261474;22;19918;-87
2020/12/10 02:12:13;;;;;;;;;;;19.40;84.70;;;;;;6219598;23;19968;-87
2020/12/10 02:15:00;;;;;;;;;;;19.40;84.80;;;;;;6242418;23;19978;-86
2020/12/10 02:18:10;;;;;;;;;;;19.40;85.00;;;;;;6258280;23;19926;-87
2020/12/10 02:25:13;;;;;;;;;;;19.30;85.20;;;;;;6152267;23;20371;-86
2020/12/10 02:28:05;;;;;;;;;;;19.30;85.30;;;;;;6132227;23;19932;-84
2020/12/10 02:31:29;;;;;;;;;;;19.30;85.30;;;;;;6120308;23;19949;-87
2020/12/10 02:34:47;;;;;;;;;;;;;;;;;;;;;
2020/12/10 02:41:22;;;;;;;;;;;19.30;85.30;;;;;;6029553;23;19971;-87
2020/12/10 02:53:22;;;;;;;;;;;19.50;85.20;;;;;;5838508;24;19924;-86
2020/12/10 03:02:57;;;;;;;;;;;19.60;84.70;;;;;;5910415;24;19912;-90
2020/12/10 03:14:10;;;;;;;;;;;19.60;84.70;;;;;;6031616;23;19930;-85
2020/12/10 03:17:24;;;;;;;;;;;19.60;84.80;;;;;;5959642;24;19926;-85
2020/12/10 03:20:31;;;;;;;;;;;19.50;84.90;;;;;;5987738;24;19927;-85
2020/12/10 03:23:44;;;;;;;;;;;19.50;85.00;;;;;;5994816;24;19926;-84
2020/12/10 03:30:33;;;;;;;;;;;19.50;85.20;;;;;;6193713;22;19927;-88
2020/12/10 03:37:29;;;;;;;;;;;19.40;85.40;;;;;;6262340;22;19953;-87
2020/12/10 03:40:44;;;;;;;;;;;19.40;85.50;;;;;;6225659;22;19947;-86
2020/12/10 03:44:35;;;;;;;;;;;19.30;85.60;;;;;;6265811;22;19959;-86
2020/12/10 03:52:03;;;;;;;;;;;;;;;;;;;;;
2020/12/10 03:55:24;;;;;;;;;;;19.20;86.10;;;;;;6106848;23;19928;-85
2020/12/10 04:05:55;;;;;;;;;;;19.10;86.40;;;;;;6175584;23;19924;-86
2020/12/10 04:12:19;;;;;;;;;;;19.00;86.40;;;;;;6153595;23;19921;-86
2020/12/10 04:23:31;;;;;;;;;;;;;;;;;;;;;
2020/12/10 04:31:00;;;;;;;;;;;19.20;86.30;;;;;;6146956;23;20257;-84
2020/12/10 04:38:57;;;;;;;;;;;;;;;;;;;;;
2020/12/10 04:45:42;;;;;;;;;;;19.20;86.10;;;;;;6268099;23;19926;-85
2020/12/10 04:48:27;;;;;;;;;;;19.10;86.20;;;;;;6224607;23;19924;-85
2020/12/10 04:51:35;;;;;;;;;;;;;;;;;;;;;
2020/12/10 04:54:25;;;;;;;;;;;19.00;86.40;;;;;;6245567;23;19920;-86
2020/12/10 05:05:33;;;;;;;;;;;19.20;86.60;;;;;;6099070;23;19930;-83
2020/12/10 05:11:50;;;;;;;;;;;19.60;85.30;;;;;;6246502;22;19919;-85
2020/12/10 05:14:18;;;;;;;;;;;19.90;84.00;;;;;;6259391;22;19926;-83
2020/12/10 05:17:21;;;;;;;;;;;;;;;;;;;;;
2020/12/10 05:20:51;;;;;;;;;;;20.30;82.60;;;;;;6303776;22;19995;-84
2020/12/10 05:23:32;;;;;;;;;;;20.40;81.80;;;;;;6244639;22;19911;-84
2020/12/10 05:26:02;;;;;;;;;;;20.60;81.20;;;;;;6273303;22;20331;-86
2020/12/10 05:28:55;;;;;;;;;;;20.70;80.80;;;;;;6228540;22;20389;-87
2020/12/10 05:31:35;;;;;;;;;;;20.90;80.30;;;;;;6228921;22;19923;-83
2020/12/10 05:38:28;;;;;;;;;;;21.00;80.30;;;;;;6118346;22;19930;-85
2020/12/10 05:41:15;;;;;;;;;;;21.10;80.20;;;;;;6236847;22;19919;-85
2020/12/10 05:44:09;;;;;;;;;;;21.20;79.90;;;;;;6259833;22;20247;-84
2020/12/10 05:47:35;;;;;;;;;;;21.50;79.40;;;;;;6141636;23;19920;-83
2020/12/10 05:50:37;;;;;;;;;;;21.80;78.60;;;;;;6132218;23;19972;-84
2020/12/10 05:54:30;;;;;;;;;;;22.00;77.90;;;;;;6041697;23;19916;-88
2020/12/10 05:58:16;;;;;;;;;;;22.40;77.00;;;;;;5999704;24;19917;-83
2020/12/10 06:01:46;;;;;;;;;;;22.60;76.30;;;;;;5886635;24;19924;-82
2020/12/10 06:07:59;;;;;;;;;;;22.90;75.50;;;;;;6177977;22;19919;-86
2020/12/10 06:30:18;;;;;;;;;;;22.60;76.30;;;;;;6248574;22;19919;-86
2020/12/10 06:42:10;;;;;;;;;;;;;;;;;;;;;
2020/12/10 07:33:22;;;;;;;;;;;21.60;80.40;;;;;;6014881;23;19922;-85
2020/12/10 09:15:27;;;;;;;;;;;23.00;66.20;;;;;;6252860;22;19920;-82
2020/12/10 09:17:57;;;;;;;;;;;22.80;68.50;;;;;;6239624;23;19920;-86
2020/12/10 09:20:40;;;;;;;;;;;22.80;69.70;;;;;;6235341;23;19919;-85
2020/12/10 09:23:10;;;;;;;;;;;23.00;70.20;;;;;;6247650;23;19968;-84
2020/12/10 09:25:38;;;;;;;;;;;23.20;70.20;;;;;;6232491;23;19930;-80
2020/12/10 09:28:09;;;;;;;;;;;23.50;70.10;;;;;;6205137;23;19924;-84
2020/12/10 09:30:53;;;;;;;;;;;23.70;69.60;;;;;;6262584;23;19920;-85
2020/12/10 10:00:06;;;;;;;;;;;24.60;68.40;;;;;;6200203;23;20012;-83
2020/12/10 10:07:41;;;;;;;;;;;24.50;69.00;;;;;;6153535;23;19920;-81
2020/12/10 10:14:25;;;;;;;;;;;24.50;69.00;;;;;;6145733;23;19919;-84
2020/12/10 10:16:54;;;;;;;;;;;24.40;69.20;;;;;;6106254;23;19925;-84
2020/12/10 10:19:22;;;;;;;;;;;24.30;69.30;;;;;;6137966;23;19911;-84
2020/12/10 10:21:57;;;;;;;;;;;24.30;69.80;;;;;;6104908;23;20384;-86
2020/12/10 10:24:31;;;;;;;;;;;24.30;69.60;;;;;;6103091;23;19932;-83
2020/12/10 10:27:04;;;;;;;;;;;24.30;70.00;;;;;;6115903;23;19958;-86
2020/12/10 10:29:33;;;;;;;;;;;24.20;70.10;;;;;;6105831;23;19921;-83
2020/12/10 10:32:00;;;;;;;;;;;24.20;70.40;;;;;;6107707;23;19928;-82
2020/12/10 10:34:30;;;;;;;;;;;24.00;71.30;;;;;;6132785;23;19925;-84
2020/12/10 10:37:02;;;;;;;;;;;23.90;71.60;;;;;;6110939;23;19927;-84
2020/12/10 10:39:35;;;;;;;;;;;23.90;71.50;;;;;;6136749;23;20385;-81
2020/12/10 10:42:07;;;;;;;;;;;23.90;71.70;;;;;;6110942;23;19935;-84
2020/12/10 10:45:11;;;;;;;;;;;23.80;71.70;;;;;;6107410;23;19924;-85
2020/12/10 10:47:42;;;;;;;;;;;23.90;71.90;;;;;;6179963;23;19931;-84
2020/12/10 10:50:12;;;;;;;;;;;23.90;72.00;;;;;;6194771;23;19927;-85
2020/12/10 10:53:11;;;;;;;;;;;23.90;72.20;;;;;;6122760;23;19935;-83
2020/12/10 10:55:49;;;;;;;;;;;23.90;71.70;;;;;;6117629;23;19909;-84
2020/12/10 10:58:36;;;;;;;;;;;;;;;;;;;;;
2020/12/10 11:01:46;;;;;;;;;;;23.90;71.20;;;;;;6206665;23;19935;-84
2020/12/10 11:04:24;;;;;;;;;;;23.90;71.20;;;;;;6177999;23;19924;-85
2020/12/10 11:07:02;;;;;;;;;;;23.90;71.60;;;;;;6187163;23;19990;-84
2020/12/10 11:09:32;;;;;;;;;;;23.80;71.90;;;;;;6195873;23;19938;-84
2020/12/10 11:11:59;;;;;;;;;;;23.80;71.80;;;;;;6194863;23;19924;-86
2020/12/10 11:14:39;;;;;;;;;;;;;;;;;;;;;
2020/12/10 11:17:10;;;;;;;;;;;23.90;72.20;;;;;;6181565;23;19919;-86
2020/12/10 11:19:44;;;;;;;;;;;23.90;72.30;;;;;;6159349;23;19953;-86
2020/12/10 11:22:14;;;;;;;;;;;23.80;72.20;;;;;;6181816;23;19918;-86
2020/12/10 11:25:12;;;;;;;;;;;23.70;72.30;;;;;;6158327;23;19921;-85
2020/12/10 11:27:55;;;;;;;;;;;23.70;72.70;;;;;;6193824;23;19908;-83
2020/12/10 11:30:40;;;;;;;;;;;23.70;72.90;;;;;;6168891;23;19924;-86
2020/12/10 11:33:13;;;;;;;;;;;23.60;73.10;;;;;;6195117;23;19928;-86
2020/12/10 11:35:47;;;;;;;;;;;23.50;73.20;;;;;;6205271;23;19924;-82
2020/12/10 11:38:17;;;;;;;;;;;23.50;73.40;;;;;;6199403;23;19923;-83
2020/12/10 11:40:49;;;;;;;;;;;23.40;73.60;;;;;;6202150;23;19930;-84
2020/12/10 11:43:19;;;;;;;;;;;23.30;73.80;;;;;;6204549;23;19923;-84
2020/12/10 11:50:00;;;;;;;;;;;23.20;73.80;;;;;;6167420;23;20211;-84
2020/12/10 11:53:08;;;;;;;;;;;23.20;74.20;;;;;;6117941;23;19912;-88
2020/12/10 12:11:01;;;;;;;;;;;22.90;74.90;;;;;;6240237;23;19942;-87
2020/12/10 12:18:31;;;;;;;;;;;22.70;75.60;;;;;;6012071;23;19928;-89
2020/12/10 12:26:28;;;;;;;;;;;22.60;76.00;;;;;;6025592;23;19928;-91
2020/12/10 12:48:32;;;;;;;;;;;22.70;76.10;;;;;;6148364;23;19920;-86
2020/12/10 13:45:28;;;;;;;;;;;23.00;75.40;;;;;;6252848;22;19919;-83
2020/12/10 13:48:00;;;;;;;;;;;23.00;75.50;;;;;;6271068;22;19919;-84
2020/12/10 13:50:36;;;;;;;;;;;23.00;75.60;;;;;;6232005;22;19923;-82
2020/12/10 13:53:03;;;;;;;;;;;23.00;74.40;;;;;;6231753;22;19919;-84
2020/12/10 13:55:36;;;;;;;;;;;23.10;74.00;;;;;;6255605;22;19920;-85
2020/12/10 13:58:21;;;;;;;;;;;23.20;73.80;;;;;;6253933;22;19941;-85
2020/12/10 14:00:49;;;;;;;;;;;23.10;74.00;;;;;;6261939;22;19923;-84
2020/12/10 14:03:16;;;;;;;;;;;23.10;74.20;;;;;;6258298;22;19924;-85
2020/12/10 14:06:05;;;;;;;;;;;23.10;74.40;;;;;;6293935;22;19923;-83
2020/12/10 14:08:32;;;;;;;;;;;23.10;74.40;;;;;;6286967;22;19926;-81
2020/12/10 14:11:00;;;;;;;;;;;23.30;74.50;;;;;;6281321;22;19919;-83
2020/12/10 14:13:27;;;;;;;;;;;23.50;74.40;;;;;;6283901;22;19919;-82
2020/12/10 14:15:53;;;;;;;;;;;23.50;74.10;;;;;;6256385;22;19924;-83
2020/12/10 14:18:22;;;;;;;;;;;23.50;74.40;;;;;;6229081;22;19927;-83
2020/12/10 14:20:50;;;;;;;;;;;23.50;74.60;;;;;;6245170;22;19933;-84
2020/12/10 14:23:18;;;;;;;;;;;23.40;74.90;;;;;;6220012;22;20089;-81
2020/12/10 14:25:45;;;;;;;;;;;23.30;75.30;;;;;;6276078;22;19923;-82
2020/12/10 14:28:12;;;;;;;;;;;23.20;75.90;;;;;;6250099;22;19923;-83
2020/12/10 14:30:39;;;;;;;;;;;23.10;76.10;;;;;;6246966;22;19934;-81
2020/12/10 14:33:07;;;;;;;;;;;23.10;76.20;;;;;;6226751;22;19922;-81
2020/12/10 14:35:34;;;;;;;;;;;23.10;76.50;;;;;;6207653;22;19923;-84
2020/12/10 14:38:02;;;;;;;;;;;23.10;76.80;;;;;;6282797;22;19923;-81
2020/12/10 14:40:29;;;;;;;;;;;23.00;76.90;;;;;;6254631;22;19924;-83
2020/12/10 14:42:56;;;;;;;;;;;23.00;77.10;;;;;;6252069;22;19923;-80
2020/12/10 14:45:23;;;;;;;;;;;23.00;77.10;;;;;;6252361;22;20171;-82
2020/12/10 14:47:50;;;;;;;;;;;23.00;77.10;;;;;;6281503;22;19923;-81
2020/12/10 14:50:18;;;;;;;;;;;22.90;77.30;;;;;;6239406;22;19950;-80
2020/12/10 14:52:45;;;;;;;;;;;22.90;77.70;;;;;;6263927;22;19927;-80
2020/12/10 14:55:12;;;;;;;;;;;22.90;77.90;;;;;;6264380;22;19914;-82
2020/12/10 14:57:39;;;;;;;;;;;22.80;78.00;;;;;;6266618;22;19923;-81
2020/12/10 15:00:06;;;;;;;;;;;22.90;77.70;;;;;;6265797;22;19919;-82
2020/12/10 15:02:33;;;;;;;;;;;22.90;77.10;;;;;;6284046;22;19923;-80
2020/12/10 15:05:00;;;;;;;;;;;23.10;76.80;;;;;;6253826;22;19930;-83
2020/12/10 15:07:28;;;;;;;;;;;23.10;76.40;;;;;;6280375;22;19929;-82
2020/12/10 15:09:57;;;;;;;;;;;23.20;76.50;;;;;;6255632;22;19929;-82
2020/12/10 15:12:27;;;;;;;;;;;23.30;76.40;;;;;;6226636;22;19943;-84
2020/12/10 15:14:54;;;;;;;;;;;23.20;76.40;;;;;;6234627;22;19930;-83
2020/12/10 15:17:21;;;;;;;;;;;23.20;76.70;;;;;;6268898;22;19913;-83
2020/12/10 15:19:49;;;;;;;;;;;23.20;76.80;;;;;;6247349;22;19923;-84
2020/12/10 15:22:16;;;;;;;;;;;23.20;76.90;;;;;;6252180;22;19929;-85
2020/12/10 15:24:43;;;;;;;;;;;23.10;77.40;;;;;;6252551;22;20326;-82
2020/12/10 15:27:10;;;;;;;;;;;23.10;77.40;;;;;;6257660;22;19923;-79
2020/12/10 15:29:38;;;;;;;;;;;23.10;77.70;;;;;;6262048;22;19924;-83
2020/12/10 15:32:08;;;;;;;;;;;23.10;77.60;;;;;;6264251;22;19914;-83
2020/12/10 15:34:35;;;;;;;;;;;23.10;77.60;;;;;;6258796;22;19929;-82
2020/12/10 15:37:03;;;;;;;;;;;23.10;77.40;;;;;;6258482;22;19923;-83
2020/12/10 15:39:30;;;;;;;;;;;23.20;77.10;;;;;;6232925;22;19930;-81
2020/12/10 15:42:03;;;;;;;;;;;23.30;77.00;;;;;;6263918;22;20171;-82
2020/12/10 15:44:34;;;;;;;;;;;23.30;76.70;;;;;;6259198;23;19935;-83
2020/12/10 15:47:09;;;;;;;;;;;23.40;76.50;;;;;;6257876;23;19920;-83
2020/12/10 15:49:36;;;;;;;;;;;23.40;76.30;;;;;;6256627;23;19914;-83
2020/12/10 15:52:04;;;;;;;;;;;23.40;76.10;;;;;;6254615;23;19923;-82
2020/12/10 15:54:31;;;;;;;;;;;23.40;76.50;;;;;;6257038;23;20149;-84
2020/12/10 15:56:58;;;;;;;;;;;23.40;76.30;;;;;;6252723;23;19930;-84
2020/12/10 15:59:28;;;;;;;;;;;23.50;76.30;;;;;;6246287;23;19924;-84
2020/12/10 16:01:56;;;;;;;;;;;23.40;76.40;;;;;;6245192;23;19934;-83
2020/12/10 16:04:24;;;;;;;;;;;23.40;76.30;;;;;;6249364;23;19923;-86
2020/12/10 16:07:01;;;;;;;;;;;23.30;76.50;;;;;;6254004;23;19920;-80
2020/12/10 16:09:34;;;;;;;;;;;23.20;76.80;;;;;;6260032;22;19918;-82
2020/12/10 16:12:01;;;;;;;;;;;23.10;77.30;;;;;;6247947;23;19923;-83
2020/12/10 16:14:30;;;;;;;;;;;23.10;77.40;;;;;;6249640;23;19923;-82
2020/12/10 16:16:58;;;;;;;;;;;23.00;77.90;;;;;;6224052;23;19924;-85
2020/12/10 16:19:28;;;;;;;;;;;22.90;77.90;;;;;;6251780;23;19934;-84
2020/12/10 16:21:56;;;;;;;;;;;22.90;78.20;;;;;;6249219;23;20018;-82
2020/12/10 16:24:24;;;;;;;;;;;22.80;78.20;;;;;;6222954;23;19928;-82
2020/12/10 16:26:52;;;;;;;;;;;22.70;78.60;;;;;;6254576;23;19930;-83
2020/12/10 16:29:19;;;;;;;;;;;22.60;78.90;;;;;;6253669;23;20265;-82
2020/12/10 16:31:50;;;;;;;;;;;22.40;79.20;;;;;;6257877;23;19928;-85
2020/12/10 16:34:17;;;;;;;;;;;22.40;79.60;;;;;;6258640;23;19919;-82
2020/12/10 16:36:53;;;;;;;;;;;22.40;79.70;;;;;;6259314;23;19924;-84
2020/12/10 16:39:23;;;;;;;;;;;22.40;79.60;;;;;;6274327;23;19907;-84
2020/12/10 16:41:57;;;;;;;;;;;22.50;79.60;;;;;;6261152;23;19924;-81
2020/12/10 16:44:27;;;;;;;;;;;22.60;79.40;;;;;;6259635;23;19923;-82
2020/12/10 16:46:55;;;;;;;;;;;22.70;79.20;;;;;;6255087;23;19930;-85
2020/12/10 16:49:23;;;;;;;;;;;22.80;78.90;;;;;;6257872;23;19923;-83
2020/12/10 16:51:50;;;;;;;;;;;22.80;78.80;;;;;;6258430;23;19923;-84
2020/12/10 16:54:17;;;;;;;;;;;22.90;78.50;;;;;;6255614;23;19930;-86
2020/12/10 16:56:45;;;;;;;;;;;22.90;78.30;;;;;;6252670;23;19923;-83
2020/12/10 16:59:13;;;;;;;;;;;22.90;78.50;;;;;;6221120;23;19923;-83
2020/12/10 17:01:40;;;;;;;;;;;22.80;78.60;;;;;;6247123;23;20014;-84
2020/12/10 17:04:07;;;;;;;;;;;22.90;78.70;;;;;;6245164;23;19924;-84
2020/12/10 17:06:39;;;;;;;;;;;23.00;79.00;;;;;;6219512;23;20319;-84
2020/12/10 17:09:08;;;;;;;;;;;23.00;78.50;;;;;;6247754;23;19927;-78
2020/12/10 17:11:36;;;;;;;;;;;23.10;78.10;;;;;;6257333;23;19961;-82
2020/12/10 17:14:06;;;;;;;;;;;23.20;77.90;;;;;;6249718;23;19933;-82
2020/12/10 17:16:33;;;;;;;;;;;23.20;77.90;;;;;;6220403;23;20288;-80
2020/12/10 17:19:01;;;;;;;;;;;23.10;78.30;;;;;;6248723;23;19923;-78
2020/12/10 17:21:28;;;;;;;;;;;23.10;78.40;;;;;;6251046;23;19930;-82
2020/12/10 17:23:55;;;;;;;;;;;23.10;78.80;;;;;;6252970;23;20155;-81
2020/12/10 17:26:32;;;;;;;;;;;23.10;79.10;;;;;;6256352;23;20025;-84
2020/12/10 17:28:59;;;;;;;;;;;23.10;79.90;;;;;;6269751;23;19919;-84
2020/12/10 17:31:27;;;;;;;;;;;23.20;79.40;;;;;;6255130;23;19929;-85
2020/12/10 17:33:54;;;;;;;;;;;23.20;83.50;;;;;;6255981;23;19920;-84
2020/12/10 17:36:27;;;;;;;;;;;23.10;83.30;;;;;;6269692;22;19914;-82
2020/12/10 17:38:54;;;;;;;;;;;23.00;83.40;;;;;;6270874;22;19947;-83
2020/12/10 17:41:22;;;;;;;;;;;23.00;83.40;;;;;;6270803;22;19908;-83
2020/12/10 17:43:52;;;;;;;;;;;22.90;83.10;;;;;;6236179;23;19930;-82
2020/12/10 17:46:20;;;;;;;;;;;22.80;83.10;;;;;;6274562;23;19923;-84
2020/12/10 17:48:48;;;;;;;;;;;22.80;83.10;;;;;;6261061;23;19919;-83
2020/12/10 17:51:15;;;;;;;;;;;22.80;82.90;;;;;;6263314;23;19934;-83
2020/12/10 17:53:43;;;;;;;;;;;22.80;82.80;;;;;;6260423;23;19908;-82
2020/12/10 17:56:11;;;;;;;;;;;22.80;82.70;;;;;;6262700;23;19919;-81
2020/12/10 17:58:40;;;;;;;;;;;22.70;82.50;;;;;;6260868;23;19920;-83
2020/12/10 18:01:08;;;;;;;;;;;22.70;82.50;;;;;;6254103;23;19923;-84
2020/12/10 18:03:35;;;;;;;;;;;22.70;82.50;;;;;;6223338;23;19923;-84
2020/12/10 18:06:06;;;;;;;;;;;22.60;82.60;;;;;;6247258;23;20434;-84
2020/12/10 18:08:42;;;;;;;;;;;22.60;82.60;;;;;;6227992;23;19930;-85
2020/12/10 18:11:15;;;;;;;;;;;22.60;82.60;;;;;;6267574;23;19966;-83
2020/12/10 18:13:45;;;;;;;;;;;22.60;82.50;;;;;;6263807;23;19920;-83
2020/12/10 18:16:12;;;;;;;;;;;22.60;82.40;;;;;;6252036;23;19919;-85
2020/12/10 18:18:40;;;;;;;;;;;22.60;82.20;;;;;;6234729;23;19923;-83
2020/12/10 18:21:07;;;;;;;;;;;22.60;82.10;;;;;;6267973;23;20221;-84
2020/12/10 18:23:37;;;;;;;;;;;22.60;81.90;;;;;;6237876;23;19930;-83
2020/12/10 18:26:06;;;;;;;;;;;22.60;81.90;;;;;;6261857;23;19924;-82
2020/12/10 18:28:33;;;;;;;;;;;22.60;82.00;;;;;;6258920;23;20243;-85
2020/12/10 18:31:02;;;;;;;;;;;22.50;82.10;;;;;;6228766;23;19939;-84
2020/12/10 18:33:30;;;;;;;;;;;22.40;82.20;;;;;;6248573;23;19929;-83
2020/12/10 18:35:58;;;;;;;;;;;22.40;82.30;;;;;;6247716;23;20007;-83
2020/12/10 18:38:25;;;;;;;;;;;22.30;82.10;;;;;;6246076;23;19928;-84
2020/12/10 18:40:57;;;;;;;;;;;22.40;82.20;;;;;;6250186;23;19920;-83
2020/12/10 18:43:34;;;;;;;;;;;22.40;81.90;;;;;;6278459;22;19985;-82
2020/12/10 18:46:03;;;;;;;;;;;22.50;81.40;;;;;;6255746;22;19919;-85
2020/12/10 18:48:33;;;;;;;;;;;22.60;81.10;;;;;;6247939;23;19920;-85
2020/12/10 18:51:02;;;;;;;;;;;22.60;80.70;;;;;;6249110;23;19926;-84
2020/12/10 18:53:29;;;;;;;;;;;22.70;80.50;;;;;;6248992;23;19995;-84
2020/12/10 18:55:57;;;;;;;;;;;22.80;80.30;;;;;;6250556;23;19934;-86
2020/12/10 18:58:48;;;;;;;;;;;22.80;80.40;;;;;;6250924;23;19924;-87
2020/12/10 19:03:04;;;;;;;;;;;22.80;80.50;;;;;;6262862;23;20255;-87
2020/12/10 19:05:46;;;;;;;;;;;22.80;80.80;;;;;;6251603;23;19974;-87
2020/12/10 19:11:38;;;;;;;;;;;22.80;80.90;;;;;;6234523;22;19919;-84
2020/12/10 19:17:42;;;;;;;;;;;22.80;82.40;;;;;;6074208;23;19921;-84
2020/12/10 19:21:04;;;;;;;;;;;22.70;78.10;;;;;;6085363;23;19929;-85
2020/12/10 19:23:58;;;;;;;;;;;22.70;83.10;;;;;;6088964;23;19921;-85
2020/12/10 19:26:51;;;;;;;;;;;22.70;85.20;;;;;;6031215;23;19925;-83
2020/12/10 19:29:56;;;;;;;;;;;22.80;85.90;;;;;;6104822;23;19925;-86
2020/12/10 19:39:43;;;;;;;;;;;22.80;87.30;;;;;;6237495;22;19927;-86
2020/12/10 20:00:54;;;;;;;;;;;21.90;90.10;;;;;;6276696;23;20361;-84
2020/12/10 20:03:36;;;;;;;;;;;21.80;90.40;;;;;;6254191;22;19907;-88
2020/12/10 20:06:13;;;;;;;;;;;21.70;90.50;;;;;;6248267;22;20335;-86
2020/12/10 20:09:11;;;;;;;;;;;;;;;;;;;;;
2020/12/10 20:12:41;;;;;;;;;;;;;;;;;;;;;
2020/12/10 20:16:03;;;;;;;;;;;21.60;90.50;;;;;;6052077;23;19913;-87
2020/12/10 20:22:21;;;;;;;;;;;21.90;89.70;;;;;;6057332;23;19913;-85
2020/12/10 20:29:31;;;;;;;;;;;;;;;;;;;;;
2020/12/10 20:33:32;;;;;;;;;;;;;;;;;;;;;
2020/12/10 20:36:55;;;;;;;;;;;22.80;83.60;;;;;;5896030;24;19900;-84
2020/12/10 20:39:48;;;;;;;;;;;22.90;83.30;;;;;;5908174;24;19937;-86
2020/12/10 21:07:41;;;;;;;;;;;;;;;;;;;;;
2020/12/10 21:14:13;;;;;;;;;;;;;;;;;;;;;
2020/12/10 21:18:00;;;;;;;;;;;;;;;;;;;;;
2020/12/10 21:21:47;;;;;;;;;;;22.00;84.50;;;;;;6173094;23;19927;-84
2020/12/10 21:25:19;;;;;;;;;;;;;;;;;;;;;
2020/12/10 21:28:28;;;;;;;;;;;21.80;85.20;;;;;;6073068;23;19940;-83
2020/12/10 21:31:19;;;;;;;;;;;21.70;85.30;;;;;;6059695;23;19921;-84
2020/12/10 21:34:24;;;;;;;;;;;21.70;85.60;;;;;;6192377;22;19907;-84
2020/12/10 21:41:05;;;;;;;;;;;21.60;86.00;;;;;;6303628;22;19925;-84
2020/12/10 21:53:11;;;;;;;;;;;21.60;86.50;;;;;;6242204;22;19920;-83
2020/12/10 21:56:23;;;;;;;;;;;21.50;86.60;;;;;;6210671;23;19938;-84
2020/12/10 21:59:21;;;;;;;;;;;21.50;86.70;;;;;;6176934;23;19920;-83
2020/12/10 22:02:11;;;;;;;;;;;21.50;87.40;;;;;;6159820;23;19930;-83
2020/12/10 22:05:17;;;;;;;;;;;21.50;87.70;;;;;;6164828;23;19935;-86
2020/12/10 22:07:52;;;;;;;;;;;21.40;87.40;;;;;;6111111;23;20233;-84
2020/12/10 22:10:20;;;;;;;;;;;21.40;87.50;;;;;;6138596;23;19921;-82
2020/12/10 22:12:57;;;;;;;;;;;21.40;87.40;;;;;;6144395;23;19923;-83
2020/12/10 22:15:29;;;;;;;;;;;21.30;87.40;;;;;;6151206;23;19961;-83
2020/12/10 22:18:02;;;;;;;;;;;21.30;87.30;;;;;;6134624;23;19909;-85
2020/12/10 22:20:40;;;;;;;;;;;21.20;87.60;;;;;;6147923;23;19965;-84
2020/12/10 22:23:13;;;;;;;;;;;21.10;87.80;;;;;;6123288;23;19968;-85
2020/12/10 22:25:43;;;;;;;;;;;21.10;88.20;;;;;;6142234;23;19925;-84
2020/12/10 22:28:10;;;;;;;;;;;21.00;88.50;;;;;;6111179;23;20452;-84
2020/12/10 22:30:46;;;;;;;;;;;21.00;88.80;;;;;;6110014;23;19921;-85
2020/12/10 22:33:17;;;;;;;;;;;20.90;89.00;;;;;;6087674;23;19935;-86
2020/12/10 22:35:44;;;;;;;;;;;20.90;89.80;;;;;;6171568;23;19924;-86
2020/12/10 22:38:17;;;;;;;;;;;20.80;89.30;;;;;;6206408;23;19912;-86
2020/12/10 22:40:50;;;;;;;;;;;20.80;89.60;;;;;;6184965;23;19928;-85
2020/12/10 22:43:24;;;;;;;;;;;20.80;89.80;;;;;;6184883;23;19935;-84
2020/12/10 22:46:06;;;;;;;;;;;20.70;90.00;;;;;;6212036;23;19921;-85
2020/12/10 22:48:36;;;;;;;;;;;20.70;90.10;;;;;;6154911;23;19931;-85
2020/12/10 22:51:07;;;;;;;;;;;20.60;90.10;;;;;;6181365;23;19922;-86
2020/12/10 22:53:35;;;;;;;;;;;20.60;90.20;;;;;;6158691;23;19920;-84
2020/12/10 22:56:12;;;;;;;;;;;20.60;90.10;;;;;;6185151;23;19916;-85
2020/12/10 22:58:43;;;;;;;;;;;20.50;90.20;;;;;;6159445;23;19922;-85
2020/12/10 23:04:10;;;;;;;;;;;20.50;90.30;;;;;;6214527;23;19908;-85
2020/12/10 23:06:38;;;;;;;;;;;20.40;90.30;;;;;;6182765;23;19921;-86
2020/12/10 23:09:31;;;;;;;;;;;20.40;90.40;;;;;;6161170;23;19908;-85
2020/12/10 23:11:58;;;;;;;;;;;20.40;90.50;;;;;;6186537;23;19915;-85
2020/12/10 23:14:25;;;;;;;;;;;20.40;90.50;;;;;;6182476;23;19924;-85
2020/12/10 23:17:04;;;;;;;;;;;20.40;90.40;;;;;;6207438;23;19924;-85
2020/12/10 23:19:37;;;;;;;;;;;20.50;90.40;;;;;;6177438;23;19931;-85
2020/12/10 23:22:04;;;;;;;;;;;20.50;90.40;;;;;;6172883;23;19920;-86
2020/12/10 23:24:36;;;;;;;;;;;20.50;90.30;;;;;;6150490;23;19924;-83
2020/12/10 23:27:05;;;;;;;;;;;20.50;90.30;;;;;;6159193;23;19930;-86
2020/12/10 23:29:47;;;;;;;;;;;20.50;90.20;;;;;;6185335;23;19926;-86
2020/12/10 23:32:23;;;;;;;;;;;20.50;90.20;;;;;;6194927;23;19908;-85
2020/12/10 23:35:13;;;;;;;;;;;;;;;;;;;;;
2020/12/10 23:37:50;;;;;;;;;;;20.40;90.10;;;;;;6181924;23;19924;-85
2020/12/10 23:40:26;;;;;;;;;;;20.40;90.10;;;;;;6181883;23;19935;-84
2020/12/10 23:43:00;;;;;;;;;;;20.40;90.20;;;;;;6183146;23;19908;-83
2020/12/10 23:45:27;;;;;;;;;;;20.30;90.30;;;;;;6181250;23;19920;-85
2020/12/10 23:47:57;;;;;;;;;;;20.30;90.30;;;;;;6146745;23;19927;-84
2020/12/10 23:50:42;;;;;;;;;;;20.30;90.40;;;;;;6185335;23;19930;-85
2020/12/10 23:53:09;;;;;;;;;;;20.20;90.40;;;;;;6144826;23;19920;-84
2020/12/10 23:55:39;;;;;;;;;;;20.20;90.40;;;;;;6169726;23;19930;-85
2020/12/10 23:58:23;;;;;;;;;;;20.20;90.50;;;;;;6166420;23;19924;-85
